Dorchester, Wisconsin
Current Conditions -  °F | °C
As of 7:55 PM on Monday 24 Nov 2014 (Local Time) from KMDZ Reporting Station
Light Snow Light Snow  
Wind Chill: 11°   Ceiling: 2700
Heat Index: 22°   Visibility: 2.5mi
Dew Point: 20°   Wind: 10mph
Humidity: 89%   Direction: 320°NW
Pressure: 29.57"   Gusts: NA
Location:  45°N, 90.34°W
Report Text: KMDZ 250155Z AUTO 32009KT 2 1/2SM -SN SCT012 BKN027 OVC037 M05/M07 A2957 RMK AO2 T10541069
Loading
Personal Weather Stations






























Interactive Weather Map New forecast layout! Learn more

10-Day Weather Forecast

Advertisements
Track Severe Weather on mobile